createdAt,value
2017-06-19T00:00:29.174Z,25.00
2017-06-19T00:02:56.700Z,24.90
2017-06-19T00:05:24.242Z,24.90
2017-06-19T00:07:51.786Z,24.80
2017-06-19T00:10:20.100Z,24.80
2017-06-19T00:12:47.649Z,24.80
2017-06-19T00:15:15.166Z,24.70
2017-06-19T00:17:43.506Z,24.80
2017-06-19T00:20:11.042Z,24.70
2017-06-19T00:22:44.198Z,24.70
2017-06-19T00:25:11.702Z,24.60
2017-06-19T00:27:39.252Z,24.60
2017-06-19T00:30:06.795Z,24.60
2017-06-19T00:32:35.118Z,24.50
2017-06-19T00:35:02.650Z,24.40
2017-06-19T00:37:30.225Z,24.40
2017-06-19T00:39:57.787Z,24.40
2017-06-19T00:42:25.398Z,24.30
2017-06-19T00:44:52.962Z,24.30
2017-06-19T00:47:21.265Z,24.20
2017-06-19T00:49:48.787Z,24.20
2017-06-19T00:52:16.374Z,24.10
2017-06-19T00:54:43.898Z,24.10
2017-06-19T00:57:11.445Z,24.10
2017-06-19T00:59:38.971Z,24.10
2017-06-19T01:02:06.497Z,24.10
2017-06-19T01:04:34.778Z,24.00
2017-06-19T01:07:03.086Z,23.90
2017-06-19T01:09:30.648Z,23.90
2017-06-19T01:11:58.207Z,23.80
2017-06-19T01:14:25.743Z,23.80
2017-06-19T01:16:54.062Z,23.80
2017-06-19T01:19:21.584Z,23.80
2017-06-19T01:21:49.142Z,23.80
2017-06-19T01:24:16.700Z,23.70
2017-06-19T01:26:44.258Z,23.80
2017-06-19T01:29:11.822Z,23.70
2017-06-19T01:31:39.345Z,23.70
2017-06-19T01:34:06.872Z,23.70
2017-06-19T01:36:34.418Z,23.70
2017-06-19T01:39:01.942Z,23.70
2017-06-19T01:41:30.230Z,23.60
2017-06-19T01:43:58.544Z,23.50
2017-06-19T01:46:26.065Z,23.50
2017-06-19T01:48:53.625Z,23.50
2017-06-19T01:51:21.913Z,23.50
2017-06-19T01:53:49.439Z,23.50
2017-06-19T01:56:16.964Z,23.60
2017-06-19T01:58:44.523Z,23.60
2017-06-19T02:01:12.074Z,23.50
2017-06-19T02:03:39.611Z,23.50
2017-06-19T02:06:07.132Z,23.50
2017-06-19T02:08:34.675Z,23.50
2017-06-19T02:11:02.229Z,23.50
2017-06-19T02:13:29.847Z,23.40
2017-06-19T02:15:57.380Z,23.40
2017-06-19T02:18:25.701Z,23.40
2017-06-19T02:20:53.227Z,23.40
2017-06-19T02:23:20.754Z,23.50
2017-06-19T02:25:48.294Z,23.50
2017-06-19T02:28:15.856Z,23.50
2017-06-19T02:30:43.417Z,23.50
2017-06-19T02:33:10.999Z,23.50
2017-06-19T02:35:38.573Z,23.50
2017-06-19T02:38:06.093Z,23.50
2017-06-19T02:40:33.622Z,23.50
2017-06-19T02:43:01.909Z,23.30
2017-06-19T02:45:29.427Z,23.30
2017-06-19T02:47:56.964Z,23.20
2017-06-19T02:50:24.494Z,23.20
2017-06-19T02:52:52.039Z,23.20
2017-06-19T02:55:20.325Z,23.10
2017-06-19T02:57:47.884Z,23.10
2017-06-19T03:00:15.398Z,23.10
2017-06-19T03:02:42.937Z,23.20
2017-06-19T03:05:10.512Z,23.00
2017-06-19T03:07:38.071Z,22.90
2017-06-19T03:10:17.282Z,22.90
2017-06-19T03:12:44.844Z,22.90
2017-06-19T03:15:12.358Z,22.80
2017-06-19T03:17:39.915Z,22.90
2017-06-19T03:20:08.221Z,22.70
2017-06-19T03:22:35.782Z,22.70
2017-06-19T03:25:03.303Z,22.60
2017-06-19T03:27:30.821Z,22.70
2017-06-19T03:29:58.397Z,22.70
2017-06-19T03:32:25.914Z,22.70
2017-06-19T03:34:53.465Z,22.70
2017-06-19T03:37:20.988Z,22.70
2017-06-19T03:39:48.526Z,22.70
2017-06-19T03:42:16.054Z,22.80
2017-06-19T03:44:43.603Z,22.80
2017-06-19T03:47:11.874Z,22.80
2017-06-19T03:49:39.406Z,22.80
2017-06-19T03:52:06.938Z,22.70
2017-06-19T03:54:34.481Z,22.70
2017-06-19T03:57:02.018Z,22.70
2017-06-19T03:59:29.544Z,22.70
2017-06-19T04:01:57.102Z,22.70
2017-06-19T04:04:24.662Z,22.70
2017-06-19T04:06:52.168Z,22.80
2017-06-19T04:09:19.725Z,22.70
2017-06-19T04:11:47.251Z,22.70
2017-06-19T04:14:14.783Z,22.80
2017-06-19T04:16:42.315Z,22.90
2017-06-19T04:19:09.877Z,23.00
2017-06-19T04:21:37.415Z,23.20
2017-06-19T04:24:05.713Z,23.30
2017-06-19T04:26:33.247Z,23.30
2017-06-19T04:29:00.795Z,23.40
2017-06-19T04:31:28.383Z,23.50
2017-06-19T04:33:55.924Z,23.60
2017-06-19T04:36:24.239Z,23.70
2017-06-19T04:38:51.810Z,23.70
2017-06-19T04:41:19.370Z,23.80
2017-06-19T04:43:46.939Z,23.80
2017-06-19T04:46:14.468Z,24.00
2017-06-19T04:48:42.009Z,24.10
2017-06-19T04:51:10.286Z,24.20
2017-06-19T04:53:38.597Z,24.20
2017-06-19T04:56:06.123Z,24.20
2017-06-19T04:58:34.482Z,24.40
2017-06-19T05:01:01.998Z,24.30
2017-06-19T05:03:29.598Z,24.40
2017-06-19T05:05:57.147Z,24.40
2017-06-19T05:08:24.671Z,24.50
2017-06-19T05:10:52.230Z,24.50
2017-06-19T05:13:19.726Z,24.60
2017-06-19T05:15:47.288Z,24.60
2017-06-19T05:18:14.789Z,24.60
2017-06-19T05:20:43.095Z,24.70
2017-06-19T05:23:10.702Z,24.60
2017-06-19T05:25:38.271Z,24.70
2017-06-19T05:28:06.560Z,24.80
2017-06-19T05:30:34.847Z,24.80
2017-06-19T05:33:02.379Z,24.80
2017-06-19T05:35:30.688Z,24.80
2017-06-19T05:37:58.198Z,24.80
2017-06-19T05:40:25.750Z,24.90
2017-06-19T05:42:53.282Z,25.00
2017-06-19T05:45:20.858Z,25.00
2017-06-19T05:47:48.407Z,25.10
2017-06-19T05:50:15.959Z,25.20
2017-06-19T05:52:43.462Z,25.30
2017-06-19T05:55:22.718Z,25.50
2017-06-19T05:57:51.818Z,25.60
2017-06-19T06:00:20.963Z,25.70
2017-06-19T06:02:49.739Z,25.70
2017-06-19T06:05:17.346Z,25.80
2017-06-19T06:07:45.489Z,25.90
2017-06-19T06:10:13.037Z,26.00
2017-06-19T06:12:40.670Z,26.10
2017-06-19T06:15:08.226Z,26.20
2017-06-19T06:17:35.739Z,26.40
2017-06-19T06:20:03.384Z,26.70
2017-06-19T06:22:30.911Z,26.80
2017-06-19T06:24:58.445Z,26.90
2017-06-19T06:27:26.724Z,27.10
2017-06-19T06:29:54.238Z,27.00
2017-06-19T06:32:21.773Z,27.20
2017-06-19T06:34:49.297Z,27.40
2017-06-19T06:37:16.819Z,27.60
2017-06-19T06:39:44.383Z,28.00
2017-06-19T06:42:11.886Z,29.40
2017-06-19T06:44:39.418Z,31.50
2017-06-19T06:47:07.270Z,33.80
2017-06-19T06:49:34.835Z,35.90
2017-06-19T06:52:02.449Z,37.20
2017-06-19T06:54:29.988Z,38.60
2017-06-19T06:56:57.696Z,39.90
2017-06-19T06:59:25.572Z,41.20
2017-06-19T07:01:53.090Z,42.30
2017-06-19T07:04:21.000Z,42.70
2017-06-19T07:06:48.530Z,42.90
2017-06-19T07:09:16.033Z,43.50
2017-06-19T07:11:43.588Z,44.10
2017-06-19T07:14:11.114Z,44.70
2017-06-19T07:16:38.646Z,45.30
2017-06-19T07:19:06.177Z,45.90
2017-06-19T07:21:33.725Z,46.50
2017-06-19T07:24:01.255Z,47.10
2017-06-19T07:26:28.844Z,47.60
2017-06-19T07:28:56.385Z,47.90
2017-06-19T07:31:23.933Z,48.20
2017-06-19T07:33:51.442Z,48.50
2017-06-19T07:36:18.958Z,48.80
2017-06-19T07:38:46.458Z,49.20
2017-06-19T07:41:13.974Z,49.50
2017-06-19T07:43:41.485Z,49.70
2017-06-19T07:46:09.036Z,50.00
2017-06-19T07:48:36.533Z,49.90
2017-06-19T07:51:04.872Z,49.60
2017-06-19T07:53:32.374Z,49.50
2017-06-19T07:55:59.962Z,49.60
2017-06-19T07:58:27.466Z,48.90
2017-06-19T08:00:55.034Z,48.40
2017-06-19T08:03:22.550Z,47.90
2017-06-19T08:05:50.066Z,47.20
2017-06-19T08:08:18.354Z,46.30
2017-06-19T08:10:45.886Z,46.20
2017-06-19T08:13:13.430Z,45.70
2017-06-19T08:15:41.022Z,44.80
2017-06-19T08:18:08.598Z,44.10
2017-06-19T08:20:36.138Z,43.20
2017-06-19T08:23:03.723Z,42.20
2017-06-19T08:25:31.274Z,40.60
2017-06-19T08:27:58.793Z,39.30
2017-06-19T08:30:26.306Z,38.50
2017-06-19T08:32:53.839Z,38.40
2017-06-19T08:35:22.114Z,36.40
2017-06-19T08:37:50.393Z,36.30
2017-06-19T08:40:17.925Z,36.20
2017-06-19T08:42:45.442Z,36.40
2017-06-19T08:45:12.946Z,36.50
2017-06-19T08:47:40.462Z,36.70
2017-06-19T08:50:07.979Z,36.80
2017-06-19T08:52:35.520Z,37.10
2017-06-19T08:55:03.034Z,36.70
2017-06-19T08:57:30.610Z,36.70
2017-06-19T08:59:58.141Z,36.60
2017-06-19T09:02:25.727Z,36.30
2017-06-19T09:04:53.229Z,36.10
2017-06-19T09:07:20.754Z,36.20
2017-06-19T09:09:48.809Z,36.30
2017-06-19T09:12:18.935Z,36.10
2017-06-19T09:14:46.466Z,36.30
2017-06-19T09:17:13.990Z,36.50
2017-06-19T09:19:41.494Z,36.60
2017-06-19T09:22:09.039Z,36.80
2017-06-19T09:24:36.565Z,37.00
2017-06-19T09:27:04.118Z,36.90
2017-06-19T09:29:31.645Z,36.90
2017-06-19T09:31:59.180Z,37.10
2017-06-19T09:34:26.727Z,37.40
2017-06-19T09:36:55.062Z,37.90
2017-06-19T09:39:22.571Z,37.90
2017-06-19T09:41:50.921Z,37.70
2017-06-19T09:44:18.441Z,37.70
2017-06-19T09:46:45.973Z,37.70
2017-06-19T09:49:14.306Z,37.80
2017-06-19T09:51:41.851Z,37.80
2017-06-19T09:54:09.377Z,37.60
2017-06-19T09:56:36.906Z,37.40
2017-06-19T09:59:04.415Z,37.40
2017-06-19T10:01:31.974Z,37.60
2017-06-19T10:03:59.490Z,38.00
2017-06-19T10:06:30.146Z,38.30
2017-06-19T10:08:57.661Z,38.40
2017-06-19T10:11:25.188Z,38.70
2017-06-19T10:13:52.706Z,38.60
2017-06-19T10:16:20.207Z,38.70
2017-06-19T10:18:47.726Z,38.50
2017-06-19T10:21:16.037Z,38.30
2017-06-19T10:23:43.566Z,38.30
2017-06-19T10:26:11.106Z,37.50
2017-06-19T10:28:38.634Z,37.30
2017-06-19T10:31:06.127Z,37.50
2017-06-19T10:33:33.646Z,37.90
2017-06-19T10:36:01.154Z,38.40
2017-06-19T10:38:28.681Z,38.70
2017-06-19T10:40:56.254Z,38.90
2017-06-19T10:43:23.798Z,38.80
2017-06-19T10:45:51.291Z,39.10
2017-06-19T10:48:18.814Z,39.40
2017-06-19T10:50:46.321Z,39.90
2017-06-19T10:53:13.864Z,40.20
2017-06-19T10:55:41.366Z,40.50
2017-06-19T10:58:09.059Z,40.70
2017-06-19T11:00:36.563Z,41.00
2017-06-19T11:03:04.133Z,40.90
2017-06-19T11:05:31.650Z,40.50
2017-06-19T11:07:59.170Z,40.40
2017-06-19T11:10:26.677Z,40.30
2017-06-19T11:12:54.210Z,40.00
2017-06-19T11:15:21.726Z,40.10
2017-06-19T11:17:49.246Z,40.30
2017-06-19T11:20:16.753Z,40.60
2017-06-19T11:22:44.278Z,40.80
2017-06-19T11:25:11.804Z,41.10
2017-06-19T11:27:39.331Z,41.20
2017-06-19T11:30:06.863Z,41.30
2017-06-19T11:32:34.387Z,41.20
2017-06-19T11:35:01.890Z,41.20
2017-06-19T11:37:29.446Z,41.40
2017-06-19T11:39:57.726Z,41.00
2017-06-19T11:42:26.102Z,40.90
2017-06-19T11:44:54.386Z,40.50
2017-06-19T11:47:21.946Z,40.50
2017-06-19T11:49:50.260Z,40.30
2017-06-19T11:52:17.801Z,40.20
2017-06-19T11:54:45.326Z,40.40
2017-06-19T11:57:12.822Z,40.40
2017-06-19T11:59:40.370Z,40.60
2017-06-19T12:02:07.878Z,40.70
2017-06-19T12:04:35.403Z,40.90
2017-06-19T12:07:02.998Z,40.50
2017-06-19T12:09:30.514Z,40.40
2017-06-19T12:11:58.013Z,40.60
2017-06-19T12:14:25.523Z,40.80
2017-06-19T12:16:53.022Z,41.00
2017-06-19T12:19:20.555Z,41.30
2017-06-19T12:21:48.112Z,40.60
2017-06-19T12:24:15.682Z,40.30
2017-06-19T12:26:43.181Z,40.20
2017-06-19T12:29:10.700Z,40.20
2017-06-19T12:31:38.209Z,40.10
2017-06-19T12:34:05.762Z,40.00
2017-06-19T12:36:33.289Z,39.70
2017-06-19T12:39:00.819Z,39.50
2017-06-19T12:41:28.347Z,39.70
2017-06-19T12:43:55.967Z,39.80
2017-06-19T12:46:23.470Z,39.80
2017-06-19T12:48:51.070Z,40.00
2017-06-19T12:51:18.603Z,40.30
2017-06-19T12:53:46.146Z,40.50
2017-06-19T12:56:13.673Z,40.80
2017-06-19T12:58:41.213Z,41.00
2017-06-19T13:01:08.767Z,41.20
2017-06-19T13:03:36.340Z,41.30
2017-06-19T13:06:03.854Z,41.30
2017-06-19T13:08:31.374Z,40.90
2017-06-19T13:10:58.901Z,39.60
2017-06-19T13:13:26.428Z,39.20
2017-06-19T13:15:53.957Z,39.30
2017-06-19T13:18:21.503Z,39.50
2017-06-19T13:20:49.022Z,39.80
2017-06-19T13:23:17.307Z,40.40
2017-06-19T13:25:44.864Z,40.30
2017-06-19T13:28:12.388Z,40.40
2017-06-19T13:30:39.918Z,40.50
2017-06-19T13:33:07.446Z,40.60
2017-06-19T13:35:34.979Z,40.60
2017-06-19T13:38:02.534Z,40.70
2017-06-19T13:40:30.078Z,41.00
2017-06-19T13:42:57.590Z,41.20
2017-06-19T13:45:25.121Z,41.30
2017-06-19T13:47:53.422Z,40.80
2017-06-19T13:50:20.982Z,40.80
2017-06-19T13:52:48.505Z,41.00
2017-06-19T13:55:16.057Z,41.20
2017-06-19T13:57:43.570Z,41.50
2017-06-19T14:00:11.101Z,41.60
2017-06-19T14:02:38.608Z,41.20
2017-06-19T14:05:06.138Z,41.40
2017-06-19T14:07:33.654Z,41.30
2017-06-19T14:10:01.186Z,41.10
2017-06-19T14:12:28.683Z,40.70
2017-06-19T14:14:56.241Z,40.80
2017-06-19T14:17:23.742Z,40.30
2017-06-19T14:19:51.300Z,40.60
2017-06-19T14:22:18.825Z,40.70
2017-06-19T14:24:46.349Z,40.90
2017-06-19T14:27:13.875Z,41.20
2017-06-19T14:29:41.438Z,41.20
2017-06-19T14:32:08.978Z,41.20
2017-06-19T14:34:36.543Z,41.00
2017-06-19T14:37:04.818Z,40.90
2017-06-19T14:39:32.407Z,40.80
2017-06-19T14:41:59.941Z,40.80
2017-06-19T14:44:27.465Z,40.80
2017-06-19T14:46:55.030Z,40.90
2017-06-19T14:49:22.546Z,40.50
2017-06-19T14:51:50.073Z,40.10
2017-06-19T14:54:18.360Z,39.90
2017-06-19T14:56:46.637Z,40.00
2017-06-19T14:59:14.170Z,40.00
2017-06-19T15:01:41.693Z,40.00
2017-06-19T15:04:09.186Z,40.10
2017-06-19T15:06:36.707Z,40.00
2017-06-19T15:09:04.242Z,40.00
2017-06-19T15:11:31.769Z,39.90
2017-06-19T15:13:59.286Z,39.70
2017-06-19T15:16:26.849Z,39.60
2017-06-19T15:18:54.350Z,39.60
2017-06-19T15:21:27.598Z,39.70
2017-06-19T15:23:55.111Z,39.80
2017-06-19T15:26:22.652Z,39.60
2017-06-19T15:28:50.163Z,39.60
2017-06-19T15:31:17.726Z,39.60
2017-06-19T15:33:45.249Z,39.70
2017-06-19T15:36:12.857Z,39.60
2017-06-19T15:38:40.371Z,39.50
2017-06-19T15:41:07.892Z,39.40
2017-06-19T15:43:35.437Z,39.30
2017-06-19T15:46:02.987Z,39.30
2017-06-19T15:48:30.510Z,39.40
2017-06-19T15:50:58.851Z,39.50
2017-06-19T15:53:26.360Z,39.50
2017-06-19T15:55:53.924Z,39.40
2017-06-19T15:58:21.441Z,39.40
2017-06-19T16:00:48.970Z,39.30
2017-06-19T16:03:16.508Z,39.10
2017-06-19T16:05:44.030Z,38.80
2017-06-19T16:08:11.571Z,38.80
2017-06-19T16:10:39.117Z,38.60
2017-06-19T16:13:06.639Z,38.60
2017-06-19T16:15:34.929Z,38.70
2017-06-19T16:18:02.439Z,38.70
2017-06-19T16:20:29.990Z,38.60
2017-06-19T16:22:57.503Z,38.40
2017-06-19T16:25:25.062Z,38.40
2017-06-19T16:27:52.569Z,38.40
2017-06-19T16:30:20.090Z,38.40
2017-06-19T16:32:47.594Z,38.20
2017-06-19T16:35:15.122Z,38.00
2017-06-19T16:37:42.638Z,38.00
2017-06-19T16:40:10.942Z,38.20
2017-06-19T16:42:38.481Z,38.10
2017-06-19T16:45:06.758Z,38.20
2017-06-19T16:47:34.291Z,38.10
2017-06-19T16:50:01.808Z,38.20
2017-06-19T16:52:29.338Z,38.00
2017-06-19T16:54:56.864Z,37.90
2017-06-19T16:57:24.413Z,37.90
2017-06-19T16:59:52.764Z,37.80
2017-06-19T17:02:20.332Z,37.70
2017-06-19T17:04:47.830Z,37.70
2017-06-19T17:07:15.350Z,37.70
2017-06-19T17:09:42.858Z,37.50
2017-06-19T17:12:10.383Z,37.50
2017-06-19T17:14:37.881Z,37.40
2017-06-19T17:17:06.185Z,37.30
2017-06-19T17:19:33.697Z,37.40
2017-06-19T17:22:01.264Z,37.40
2017-06-19T17:24:28.824Z,37.40
2017-06-19T17:26:56.362Z,37.20
2017-06-19T17:29:23.913Z,37.20
2017-06-19T17:31:51.445Z,37.20
2017-06-19T17:34:18.945Z,37.10
2017-06-19T17:36:46.474Z,37.00
2017-06-19T17:39:13.981Z,36.90
2017-06-19T17:41:41.498Z,36.90
2017-06-19T17:44:09.055Z,36.90
2017-06-19T17:46:36.586Z,36.80
2017-06-19T17:49:04.874Z,36.70
2017-06-19T17:51:32.432Z,36.60
2017-06-19T17:54:00.022Z,36.70
2017-06-19T17:56:27.547Z,36.70
2017-06-19T17:58:55.081Z,36.60
2017-06-19T18:01:22.629Z,36.50
2017-06-19T18:03:50.120Z,36.50
2017-06-19T18:06:17.667Z,36.50
2017-06-19T18:08:46.001Z,36.30
2017-06-19T18:11:13.534Z,36.30
2017-06-19T18:13:41.090Z,36.30
2017-06-19T18:16:08.635Z,36.20
2017-06-19T18:18:36.211Z,36.20
2017-06-19T18:21:03.706Z,36.10
2017-06-19T18:23:31.233Z,36.00
2017-06-19T18:25:58.737Z,35.90
2017-06-19T18:28:26.291Z,35.90
2017-06-19T18:30:53.862Z,35.80
2017-06-19T18:33:21.414Z,35.80
2017-06-19T18:35:48.934Z,35.70
2017-06-19T18:38:16.475Z,35.60
2017-06-19T18:40:44.758Z,35.40
2017-06-19T18:43:12.309Z,35.40
2017-06-19T18:45:40.581Z,35.20
2017-06-19T18:48:08.899Z,35.10
2017-06-19T18:50:36.402Z,35.00
2017-06-19T18:53:03.935Z,35.00
2017-06-19T18:55:31.486Z,34.90
2017-06-19T18:57:59.059Z,34.90
2017-06-19T19:00:26.577Z,34.80
2017-06-19T19:02:54.103Z,34.70
2017-06-19T19:05:21.650Z,34.70
2017-06-19T19:07:49.161Z,34.50
2017-06-19T19:10:16.673Z,34.50
2017-06-19T19:12:44.247Z,34.40
2017-06-19T19:15:12.554Z,34.30
2017-06-19T19:17:40.082Z,34.20
2017-06-19T19:20:08.608Z,34.10
2017-06-19T19:22:36.139Z,34.00
2017-06-19T19:25:04.411Z,33.90
2017-06-19T19:27:32.695Z,33.70
2017-06-19T19:30:00.257Z,33.70
2017-06-19T19:32:28.545Z,33.40
2017-06-19T19:34:56.062Z,33.30
2017-06-19T19:37:23.610Z,33.20
2017-06-19T19:39:51.142Z,33.00
2017-06-19T19:42:18.670Z,32.80
2017-06-19T19:44:46.198Z,32.70
2017-06-19T19:47:13.729Z,32.50
2017-06-19T19:49:41.238Z,32.50
2017-06-19T19:52:08.788Z,32.30
2017-06-19T19:54:36.347Z,32.20
2017-06-19T19:57:03.854Z,32.10
2017-06-19T19:59:31.415Z,32.00
2017-06-19T20:01:58.926Z,31.90
2017-06-19T20:04:26.450Z,31.80
2017-06-19T20:06:53.962Z,31.70
2017-06-19T20:09:22.245Z,31.50
2017-06-19T20:11:50.518Z,31.60
2017-06-19T20:14:18.050Z,31.60
2017-06-19T20:16:45.577Z,31.70
2017-06-19T20:19:13.097Z,31.70
2017-06-19T20:21:41.374Z,31.70
2017-06-19T20:24:08.915Z,31.60
2017-06-19T20:26:36.427Z,31.60
2017-06-19T20:29:03.963Z,31.50
2017-06-19T20:31:31.476Z,31.30
2017-06-19T20:33:59.014Z,31.20
2017-06-19T20:36:26.514Z,31.10
2017-06-19T20:38:54.058Z,30.90
2017-06-19T20:41:21.558Z,30.80
2017-06-19T20:43:49.126Z,30.70
2017-06-19T20:46:16.642Z,30.60
2017-06-19T20:48:44.165Z,30.50
2017-06-19T20:51:11.678Z,30.40
2017-06-19T20:53:39.223Z,30.30
2017-06-19T20:56:07.510Z,30.10
2017-06-19T20:58:35.827Z,30.00
2017-06-19T21:01:03.359Z,30.00
2017-06-19T21:03:30.911Z,29.70
2017-06-19T21:05:59.200Z,29.80
2017-06-19T21:08:26.757Z,29.80
2017-06-19T21:10:55.046Z,29.90
2017-06-19T21:13:22.569Z,29.90
2017-06-19T21:15:50.064Z,29.80
2017-06-19T21:18:17.586Z,29.70
2017-06-19T21:20:45.109Z,29.70
2017-06-19T21:23:12.646Z,29.60
2017-06-19T21:25:40.168Z,29.40
2017-06-19T21:28:07.733Z,29.40
2017-06-19T21:30:35.237Z,29.40
2017-06-19T21:33:02.794Z,29.40
2017-06-19T21:35:30.323Z,29.40
2017-06-19T21:37:57.838Z,29.30
2017-06-19T21:40:25.386Z,29.20
2017-06-19T21:42:52.919Z,29.30
2017-06-19T21:45:20.446Z,29.30
2017-06-19T21:47:47.972Z,29.20
2017-06-19T21:50:15.530Z,29.10
2017-06-19T21:52:43.045Z,29.00
2017-06-19T21:55:12.167Z,28.70
2017-06-19T21:57:39.684Z,28.70
2017-06-19T22:00:07.227Z,28.70
2017-06-19T22:02:34.723Z,28.70
2017-06-19T22:05:02.257Z,28.60
2017-06-19T22:07:29.777Z,28.60
2017-06-19T22:09:57.314Z,28.70
2017-06-19T22:12:24.845Z,28.70
2017-06-19T22:14:53.150Z,28.50
2017-06-19T22:17:20.686Z,28.40
2017-06-19T22:19:48.239Z,28.30
2017-06-19T22:22:21.398Z,28.10
2017-06-19T22:24:48.949Z,28.10
2017-06-19T22:27:16.489Z,27.90
2017-06-19T22:29:44.023Z,27.80
2017-06-19T22:32:11.545Z,27.80
2017-06-19T22:34:39.082Z,27.70
2017-06-19T22:37:06.598Z,27.60
2017-06-19T22:39:34.129Z,27.50
2017-06-19T22:42:01.700Z,27.40
2017-06-19T22:44:30.030Z,27.50
2017-06-19T22:46:57.538Z,27.40
2017-06-19T22:49:25.868Z,27.20
2017-06-19T22:51:53.394Z,27.20
2017-06-19T22:54:21.738Z,27.20
2017-06-19T22:56:49.243Z,27.20
2017-06-19T22:59:17.550Z,27.20
2017-06-19T23:01:45.078Z,27.20
2017-06-19T23:04:13.390Z,27.30
2017-06-19T23:06:41.746Z,27.20
2017-06-19T23:09:09.282Z,27.20
2017-06-19T23:11:36.803Z,27.10
2017-06-19T23:14:04.361Z,27.10
2017-06-19T23:16:31.886Z,27.10
2017-06-19T23:18:59.418Z,27.00
2017-06-19T23:21:27.710Z,27.00
2017-06-19T23:23:55.222Z,27.00
2017-06-19T23:26:22.823Z,26.90
2017-06-19T23:28:50.347Z,26.90
2017-06-19T23:31:17.873Z,26.90
2017-06-19T23:33:45.398Z,26.90
2017-06-19T23:36:12.939Z,26.90
2017-06-19T23:38:40.493Z,26.90
2017-06-19T23:41:08.026Z,26.90
2017-06-19T23:43:35.543Z,26.80
2017-06-19T23:46:03.856Z,26.80
2017-06-19T23:48:31.389Z,26.70
2017-06-19T23:50:58.922Z,26.70
2017-06-19T23:53:26.445Z,26.60
2017-06-19T23:55:53.999Z,26.60
2017-06-19T23:58:21.508Z,26.60
